Time;durP1;ratioP1;P1;durP2;ratioP2;P2;SDS_P1;SDS_P2;PMS_P1;PMS_P2;Temp;Humidity;BMP_temperature;BMP_pressure;BME280_temperature;BME280_humidity;BME280_pressure;Samples;Min_cycle;Max_cycle;Signal;HPM_P1;HPM_P2
2021/06/24 00:01:12;;;;;;;33.80;19.02;;;;;;;;;;5090952;28;20262;-73
2021/06/24 00:03:38;;;;;;;27.48;17.88;;;;;;;;;;5091157;28;20072;-73
2021/06/24 00:06:04;;;;;;;40.92;18.10;;;;;;;;;;5090505;28;20055;-73
2021/06/24 00:08:30;;;;;;;36.47;18.48;;;;;;;;;;5090274;28;20094;-73
2021/06/24 00:10:56;;;;;;;28.65;18.98;;;;;;;;;;5090580;28;20081;-73
2021/06/24 00:13:21;;;;;;;34.33;18.17;;;;;;;;;;5091217;28;20418;-73
2021/06/24 00:15:47;;;;;;;29.92;17.88;;;;;;;;;;5090566;28;20023;-73
2021/06/24 00:18:12;;;;;;;36.42;17.35;;;;;;;;;;5090558;28;20032;-73
2021/06/24 00:20:38;;;;;;;28.55;17.85;;;;;;;;;;5088974;28;20016;-73
2021/06/24 00:23:04;;;;;;;32.35;18.73;;;;;;;;;;5089462;28;20023;-73
2021/06/24 00:25:30;;;;;;;31.60;18.08;;;;;;;;;;5089340;28;20434;-73
2021/06/24 00:27:55;;;;;;;36.00;19.08;;;;;;;;;;5090650;28;20023;-72
2021/06/24 00:30:21;;;;;;;27.13;18.80;;;;;;;;;;5090830;28;20070;-71
2021/06/24 00:32:46;;;;;;;31.98;17.55;;;;;;;;;;5090506;28;20413;-71
2021/06/24 00:35:12;;;;;;;44.50;19.77;;;;;;;;;;5089580;28;20020;-73
2021/06/24 00:37:40;;;;;;;41.85;19.27;;;;;;;;;;5089659;28;20262;-72
2021/06/24 00:40:05;;;;;;;28.83;17.55;;;;;;;;;;5086426;28;20016;-71
2021/06/24 00:42:31;;;;;;;27.85;17.67;;;;;;;;;;5090590;28;20019;-72
2021/06/24 00:44:57;;;;;;;29.65;17.88;;;;;;;;;;5090351;28;20052;-72
2021/06/24 00:47:23;;;;;;;28.50;18.10;;;;;;;;;;5090766;28;20012;-72
2021/06/24 00:49:48;;;;;;;40.10;19.30;;;;;;;;;;5090168;28;20047;-71
2021/06/24 00:52:13;;;;;;;29.37;18.23;;;;;;;;;;5090259;28;20433;-72
2021/06/24 00:54:38;;;;;;;33.65;19.65;;;;;;;;;;5089573;28;20262;-71
2021/06/24 00:57:05;;;;;;;33.28;18.20;;;;;;;;;;5089080;28;20031;-73
2021/06/24 00:59:31;;;;;;;35.22;19.02;;;;;;;;;;5090582;28;20020;-72
2021/06/24 01:01:56;;;;;;;29.88;17.48;;;;;;;;;;5090211;28;20042;-71
2021/06/24 01:04:22;;;;;;;26.80;17.37;;;;;;;;;;5089628;28;20012;-71
2021/06/24 01:06:48;;;;;;;31.00;17.05;;;;;;;;;;5070991;28;20324;-71
2021/06/24 01:09:13;;;;;;;34.25;18.15;;;;;;;;;;5075098;28;20025;-71
2021/06/24 01:11:39;;;;;;;32.33;18.40;;;;;;;;;;5089656;28;20047;-73
2021/06/24 01:14:05;;;;;;;35.80;17.13;;;;;;;;;;5090388;28;20257;-73
2021/06/24 01:16:30;;;;;;;30.60;16.92;;;;;;;;;;5089872;28;20020;-71
2021/06/24 01:18:55;;;;;;;24.27;17.10;;;;;;;;;;5084012;28;20025;-71
2021/06/24 01:21:20;;;;;;;32.00;17.40;;;;;;;;;;5076582;28;20746;-71
2021/06/24 01:23:45;;;;;;;27.97;17.20;;;;;;;;;;5089137;28;20024;-74
2021/06/24 01:26:11;;;;;;;30.55;17.85;;;;;;;;;;5089787;28;20800;-74
2021/06/24 01:28:36;;;;;;;29.83;17.13;;;;;;;;;;5089841;28;20035;-73
2021/06/24 01:31:02;;;;;;;28.70;15.52;;;;;;;;;;5090293;28;20464;-71
2021/06/24 01:33:27;;;;;;;28.92;16.45;;;;;;;;;;5090454;28;20024;-71
2021/06/24 01:35:57;;;;;;;28.88;15.35;;;;;;;;;;5081866;28;20020;-73
2021/06/24 01:38:22;;;;;;;34.78;15.45;;;;;;;;;;5089843;28;20389;-71
2021/06/24 01:40:47;;;;;;;28.15;18.02;;;;;;;;;;5089300;28;20032;-72
2021/06/24 01:43:12;;;;;;;24.90;16.20;;;;;;;;;;5090169;28;20042;-71
2021/06/24 01:45:47;;;;;;;23.90;16.30;;;;;;;;;;5090990;28;20266;-77
2021/06/24 01:48:13;;;;;;;25.95;15.90;;;;;;;;;;5103216;28;20619;-71
2021/06/24 01:50:38;;;;;;;30.60;16.65;;;;;;;;;;5086487;28;20125;-73
2021/06/24 01:53:04;;;;;;;25.80;16.15;;;;;;;;;;5093290;28;20020;-71
2021/06/24 01:55:33;;;;;;;25.77;15.52;;;;;;;;;;5091794;28;20517;-71
2021/06/24 01:58:00;;;;;;;26.75;16.50;;;;;;;;;;5093452;28;20024;-71
2021/06/24 02:00:25;;;;;;;27.92;14.98;;;;;;;;;;5093676;28;20020;-71
2021/06/24 02:02:50;;;;;;;25.27;16.25;;;;;;;;;;5093491;28;20430;-72
2021/06/24 02:05:15;;;;;;;24.33;15.37;;;;;;;;;;5092875;28;20038;-72
2021/06/24 02:07:42;;;;;;;20.80;14.63;;;;;;;;;;5090681;28;20746;-72
2021/06/24 02:10:08;;;;;;;25.05;14.65;;;;;;;;;;5081120;28;20289;-72
2021/06/24 02:12:33;;;;;;;33.85;17.52;;;;;;;;;;5093060;28;20512;-72
2021/06/24 02:14:58;;;;;;;25.00;14.85;;;;;;;;;;5092062;28;20022;-72
2021/06/24 02:17:24;;;;;;;29.92;15.88;;;;;;;;;;5093578;28;20392;-72
2021/06/24 02:19:50;;;;;;;25.23;15.30;;;;;;;;;;5093482;28;20031;-72
2021/06/24 02:22:16;;;;;;;29.35;16.88;;;;;;;;;;5091630;28;20111;-72
2021/06/24 02:24:41;;;;;;;24.80;15.30;;;;;;;;;;5090001;28;20043;-72
2021/06/24 02:27:06;;;;;;;30.92;15.60;;;;;;;;;;5092994;28;20023;-72
2021/06/24 02:29:32;;;;;;;27.63;15.47;;;;;;;;;;5092646;28;20337;-72
2021/06/24 02:31:57;;;;;;;28.60;15.33;;;;;;;;;;5093049;28;20763;-72
2021/06/24 02:34:22;;;;;;;27.93;14.97;;;;;;;;;;5092430;28;20548;-72
2021/06/24 02:36:47;;;;;;;28.83;14.77;;;;;;;;;;5092543;28;20265;-72
2021/06/24 02:39:12;;;;;;;22.00;14.57;;;;;;;;;;5093041;28;20028;-72
2021/06/24 02:41:38;;;;;;;23.90;14.70;;;;;;;;;;5077613;28;20751;-72
2021/06/24 02:44:03;;;;;;;26.27;15.43;;;;;;;;;;5075143;28;20035;-72
2021/06/24 02:46:28;;;;;;;28.30;14.07;;;;;;;;;;5092367;28;20255;-72
2021/06/24 02:48:53;;;;;;;19.60;14.48;;;;;;;;;;5093462;28;20020;-72
2021/06/24 02:51:19;;;;;;;23.17;14.40;;;;;;;;;;5092573;28;20510;-72
2021/06/24 02:53:44;;;;;;;25.87;14.03;;;;;;;;;;5092724;28;20055;-72
2021/06/24 02:56:09;;;;;;;23.47;14.27;;;;;;;;;;5091992;28;20315;-72
2021/06/24 02:58:34;;;;;;;22.48;14.15;;;;;;;;;;5090262;28;20622;-72
2021/06/24 03:00:59;;;;;;;31.83;16.50;;;;;;;;;;5092427;28;20019;-72
2021/06/24 03:03:24;;;;;;;22.97;14.83;;;;;;;;;;5091890;28;20069;-72
2021/06/24 03:05:50;;;;;;;29.40;16.05;;;;;;;;;;5091255;28;20646;-72
2021/06/24 03:08:15;;;;;;;26.27;14.48;;;;;;;;;;5091552;28;20031;-72
2021/06/24 03:10:40;;;;;;;25.13;14.52;;;;;;;;;;5092243;28;20043;-72
2021/06/24 03:13:05;;;;;;;26.80;15.63;;;;;;;;;;5090683;28;20024;-72
2021/06/24 03:15:32;;;;;;;32.70;16.20;;;;;;;;;;5072395;28;20333;-72
2021/06/24 03:17:57;;;;;;;26.90;16.33;;;;;;;;;;5092176;28;20276;-72
2021/06/24 03:20:27;;;;;;;29.25;15.95;;;;;;;;;;5091754;28;20016;-72
2021/06/24 03:22:57;;;;;;;31.13;16.25;;;;;;;;;;5092240;28;20063;-72
2021/06/24 03:25:22;;;;;;;27.93;16.37;;;;;;;;;;5091160;28;20016;-72
2021/06/24 03:27:47;;;;;;;26.33;15.30;;;;;;;;;;5083158;28;20081;-72
2021/06/24 03:30:13;;;;;;;26.52;16.05;;;;;;;;;;5086629;28;20085;-72
2021/06/24 03:32:38;;;;;;;21.85;14.27;;;;;;;;;;5079236;28;20091;-72
2021/06/24 03:35:04;;;;;;;28.63;17.02;;;;;;;;;;5091372;28;20023;-72
2021/06/24 03:37:29;;;;;;;29.40;16.42;;;;;;;;;;5091408;28;20024;-72
2021/06/24 03:39:54;;;;;;;23.87;15.80;;;;;;;;;;5091411;28;20028;-71
2021/06/24 03:42:19;;;;;;;23.70;15.27;;;;;;;;;;5080575;28;20283;-72
2021/06/24 03:44:44;;;;;;;27.75;15.45;;;;;;;;;;5082956;28;20055;-72
2021/06/24 03:47:10;;;;;;;22.13;15.77;;;;;;;;;;5089231;28;20189;-72
2021/06/24 03:49:35;;;;;;;24.15;16.70;;;;;;;;;;5091497;28;20758;-73
2021/06/24 03:52:00;;;;;;;24.33;16.07;;;;;;;;;;5091128;28;20024;-73
2021/06/24 03:54:25;;;;;;;29.37;17.13;;;;;;;;;;5079649;28;20291;-73
2021/06/24 03:56:50;;;;;;;33.40;18.40;;;;;;;;;;5088958;28;20799;-73
2021/06/24 03:59:15;;;;;;;35.47;20.73;;;;;;;;;;5091403;28;20270;-73
2021/06/24 04:01:44;;;;;;;31.97;21.03;;;;;;;;;;5090971;28;20734;-74
2021/06/24 04:04:10;;;;;;;42.47;20.95;;;;;;;;;;5091263;28;20265;-73
2021/06/24 04:06:35;;;;;;;44.50;21.05;;;;;;;;;;5090356;28;20078;-73
2021/06/24 04:09:01;;;;;;;33.80;20.27;;;;;;;;;;5090854;28;20521;-78
2021/06/24 04:11:26;;;;;;;33.90;20.33;;;;;;;;;;5091324;28;20257;-72
2021/06/24 04:13:51;;;;;;;31.17;19.23;;;;;;;;;;5090010;28;20027;-73
2021/06/24 04:16:17;;;;;;;37.17;20.67;;;;;;;;;;5091130;28;20321;-75
2021/06/24 04:18:42;;;;;;;38.37;22.23;;;;;;;;;;5091147;28;20293;-72
2021/06/24 04:21:07;;;;;;;38.87;23.03;;;;;;;;;;5090123;28;20269;-76
2021/06/24 04:23:32;;;;;;;36.13;22.60;;;;;;;;;;5090739;28;21739;-73
2021/06/24 04:25:57;;;;;;;39.28;24.50;;;;;;;;;;5090659;28;20317;-73
2021/06/24 04:28:23;;;;;;;41.63;23.02;;;;;;;;;;5090986;28;20016;-72
2021/06/24 04:30:48;;;;;;;39.00;23.13;;;;;;;;;;5091035;28;20031;-72
2021/06/24 04:33:13;;;;;;;43.75;22.83;;;;;;;;;;5090862;28;20073;-77
2021/06/24 04:35:38;;;;;;;33.40;22.70;;;;;;;;;;5075184;28;20095;-72
2021/06/24 04:38:04;;;;;;;40.70;24.98;;;;;;;;;;5090975;28;20262;-75
2021/06/24 04:40:29;;;;;;;38.92;23.25;;;;;;;;;;5090878;28;20077;-72
2021/06/24 04:42:54;;;;;;;41.65;25.10;;;;;;;;;;5090449;28;20043;-73
2021/06/24 04:45:20;;;;;;;41.78;23.95;;;;;;;;;;5090549;28;20027;-72
2021/06/24 04:47:48;;;;;;;45.50;24.92;;;;;;;;;;5090864;28;20016;-72
2021/06/24 04:50:13;;;;;;;39.90;24.27;;;;;;;;;;5091083;28;20028;-72
2021/06/24 04:52:38;;;;;;;46.53;27.10;;;;;;;;;;5098077;28;20030;-75
2021/06/24 04:55:04;;;;;;;41.13;25.23;;;;;;;;;;5096061;28;20027;-72
2021/06/24 04:57:29;;;;;;;47.65;24.50;;;;;;;;;;5090822;28;20008;-73
2021/06/24 04:59:54;;;;;;;44.37;27.97;;;;;;;;;;5090984;28;20023;-75
2021/06/24 05:02:20;;;;;;;40.60;26.33;;;;;;;;;;5089993;28;20775;-71
2021/06/24 05:04:45;;;;;;;41.53;24.73;;;;;;;;;;5090213;28;20107;-72
2021/06/24 05:07:10;;;;;;;46.25;26.17;;;;;;;;;;5080092;28;20269;-73
2021/06/24 05:09:39;;;;;;;46.08;26.00;;;;;;;;;;5083702;28;20078;-73
2021/06/24 05:12:11;;;;;;;46.08;25.35;;;;;;;;;;5091446;28;20016;-72
2021/06/24 05:14:37;;;;;;;44.75;25.65;;;;;;;;;;5089916;28;20032;-73
2021/06/24 05:17:03;;;;;;;43.38;26.42;;;;;;;;;;5089827;28;20023;-73
2021/06/24 05:19:31;;;;;;;40.92;25.27;;;;;;;;;;5086317;28;20028;-72
2021/06/24 05:21:56;;;;;;;44.90;25.20;;;;;;;;;;5084090;28;20031;-72
2021/06/24 05:24:22;;;;;;;38.93;26.00;;;;;;;;;;5102161;22;20033;-88
2021/06/24 05:26:47;;;;;;;42.35;24.88;;;;;;;;;;5061095;28;20290;-88
2021/06/24 05:29:12;;;;;;;46.55;25.50;;;;;;;;;;5031454;28;20256;-88
2021/06/24 05:31:39;;;;;;;44.75;26.20;;;;;;;;;;5047697;28;20059;-88
2021/06/24 05:34:04;;;;;;;41.80;26.08;;;;;;;;;;5037746;28;20032;-88
2021/06/24 05:36:31;;;;;;;44.80;25.75;;;;;;;;;;5049850;28;20396;-88
2021/06/24 05:38:56;;;;;;;47.60;26.17;;;;;;;;;;5047995;28;20032;-88
2021/06/24 05:41:21;;;;;;;43.13;26.90;;;;;;;;;;5032383;28;20046;-87
2021/06/24 05:43:47;;;;;;;44.90;25.60;;;;;;;;;;5034403;28;20024;-88
2021/06/24 05:46:12;;;;;;;41.90;25.63;;;;;;;;;;5050094;28;20788;-88
2021/06/24 05:48:37;;;;;;;43.33;27.88;;;;;;;;;;5058862;28;20783;-88
2021/06/24 05:51:02;;;;;;;49.85;28.88;;;;;;;;;;5043310;28;20012;-88
2021/06/24 05:53:28;;;;;;;51.13;28.42;;;;;;;;;;5046554;28;20517;-89
2021/06/24 05:55:53;;;;;;;52.83;28.88;;;;;;;;;;5048869;28;20024;-88
2021/06/24 05:58:23;;;;;;;38.42;26.60;;;;;;;;;;5049092;28;20091;-87
2021/06/24 06:00:51;;;;;;;42.65;26.75;;;;;;;;;;5040868;28;20084;-86
2021/06/24 06:03:17;;;;;;;48.17;28.20;;;;;;;;;;5056328;28;20079;-86
2021/06/24 06:05:43;;;;;;;41.47;26.88;;;;;;;;;;5037626;28;20089;-86
2021/06/24 06:08:08;;;;;;;43.03;27.33;;;;;;;;;;5041860;28;20028;-86
2021/06/24 06:10:34;;;;;;;45.05;27.65;;;;;;;;;;5071114;28;20025;-86
2021/06/24 06:13:00;;;;;;;48.22;27.40;;;;;;;;;;5072324;28;20462;-88
2021/06/24 06:15:25;;;;;;;51.65;29.38;;;;;;;;;;5052499;28;20023;-89
2021/06/24 06:17:50;;;;;;;38.33;26.85;;;;;;;;;;5057975;28;20070;-89
2021/06/24 06:20:16;;;;;;;51.97;28.02;;;;;;;;;;5058634;28;20024;-89
2021/06/24 06:22:41;;;;;;;44.90;28.75;;;;;;;;;;5055482;28;20024;-87
2021/06/24 06:25:07;;;;;;;41.03;28.10;;;;;;;;;;5071035;28;20024;-89
2021/06/24 06:27:32;;;;;;;46.05;29.33;;;;;;;;;;5053347;28;20115;-88
2021/06/24 06:29:57;;;;;;;46.80;27.92;;;;;;;;;;5071462;28;20028;-88
2021/06/24 06:32:24;;;;;;;46.33;31.15;;;;;;;;;;5052337;28;20028;-88
2021/06/24 06:34:49;;;;;;;45.25;29.05;;;;;;;;;;5053125;28;20074;-88
2021/06/24 06:37:14;;;;;;;46.58;29.40;;;;;;;;;;5053011;28;20025;-88
2021/06/24 06:39:40;;;;;;;47.33;29.85;;;;;;;;;;5054899;28;20079;-88
2021/06/24 06:42:05;;;;;;;51.10;28.85;;;;;;;;;;5055494;28;20099;-88
2021/06/24 06:44:33;;;;;;;44.78;28.15;;;;;;;;;;5049361;28;20078;-87
2021/06/24 06:46:58;;;;;;;46.83;29.23;;;;;;;;;;5049518;28;20373;-88
2021/06/24 06:49:44;;;;;;;43.00;29.40;;;;;;;;;;5050969;28;20031;-87
2021/06/24 06:52:12;;;;;;;46.00;30.63;;;;;;;;;;5046737;28;20039;-88
2021/06/24 06:54:51;;;;;;;;;;;;;;;;;;;;;
2021/06/24 06:57:16;;;;;;;45.38;29.13;;;;;;;;;;5065419;28;20229;-88
2021/06/24 06:59:41;;;;;;;54.63;29.48;;;;;;;;;;5060806;28;20143;-87
2021/06/24 07:02:10;;;;;;;53.33;31.65;;;;;;;;;;5053406;28;21271;-87
2021/06/24 07:04:36;;;;;;;46.90;28.40;;;;;;;;;;5049792;28;20028;-88
2021/06/24 07:07:01;;;;;;;48.03;28.25;;;;;;;;;;5034925;28;20023;-88
2021/06/24 07:09:29;;;;;;;44.33;28.95;;;;;;;;;;5063502;28;20036;-87
2021/06/24 07:11:54;;;;;;;53.25;29.23;;;;;;;;;;5050287;28;20113;-88
2021/06/24 07:14:21;;;;;;;50.55;29.85;;;;;;;;;;5071768;28;20571;-88
2021/06/24 07:16:46;;;;;;;47.45;29.40;;;;;;;;;;5035314;28;20017;-87
2021/06/24 07:19:12;;;;;;;55.88;30.33;;;;;;;;;;5051654;28;20086;-88
2021/06/24 07:21:37;;;;;;;51.00;29.38;;;;;;;;;;5053852;28;20473;-87
2021/06/24 07:24:03;;;;;;;55.05;31.17;;;;;;;;;;5051769;28;20020;-88
2021/06/24 07:26:28;;;;;;;51.55;30.48;;;;;;;;;;5039950;28;20028;-87
2021/06/24 07:28:54;;;;;;;40.65;28.67;;;;;;;;;;5051558;28;20442;-87
2021/06/24 07:31:19;;;;;;;50.08;29.88;;;;;;;;;;5069963;28;20017;-87
2021/06/24 07:33:44;;;;;;;54.90;31.52;;;;;;;;;;5042285;28;20435;-87
2021/06/24 07:36:09;;;;;;;48.85;30.90;;;;;;;;;;5039211;28;20468;-88
2021/06/24 07:38:35;;;;;;;47.40;29.33;;;;;;;;;;5050460;28;20041;-88
2021/06/24 07:41:00;;;;;;;47.35;29.92;;;;;;;;;;5041524;28;20289;-86
2021/06/24 07:43:25;;;;;;;51.83;30.05;;;;;;;;;;5056114;28;20048;-86
2021/06/24 07:45:51;;;;;;;50.42;31.05;;;;;;;;;;5056217;28;20423;-86
2021/06/24 07:48:17;;;;;;;50.47;31.50;;;;;;;;;;5051022;28;20020;-86
2021/06/24 07:50:42;;;;;;;48.97;30.50;;;;;;;;;;5062621;28;20032;-86
2021/06/24 07:53:07;;;;;;;50.13;31.10;;;;;;;;;;5046876;28;20419;-86
2021/06/24 07:55:33;;;;;;;47.50;29.85;;;;;;;;;;5047513;28;20020;-86
2021/06/24 07:58:02;;;;;;;55.72;30.23;;;;;;;;;;5049684;28;20024;-86
2021/06/24 08:00:28;;;;;;;42.28;27.88;;;;;;;;;;5040605;28;20036;-86
2021/06/24 08:02:53;;;;;;;42.75;28.48;;;;;;;;;;5043514;28;20013;-86
2021/06/24 08:05:19;;;;;;;42.15;28.27;;;;;;;;;;5046527;28;20017;-87
2021/06/24 08:07:45;;;;;;;45.40;28.48;;;;;;;;;;5041060;28;20070;-87
2021/06/24 08:10:11;;;;;;;44.38;28.48;;;;;;;;;;5037359;28;20136;-87
2021/06/24 08:12:37;;;;;;;43.03;27.33;;;;;;;;;;5031806;28;20484;-87
2021/06/24 08:15:02;;;;;;;48.00;27.23;;;;;;;;;;5030647;28;20451;-87
2021/06/24 08:17:27;;;;;;;48.75;28.45;;;;;;;;;;5057779;28;20059;-87
2021/06/24 08:19:53;;;;;;;40.38;26.20;;;;;;;;;;5064848;28;20048;-87
2021/06/24 08:22:18;;;;;;;40.42;27.38;;;;;;;;;;5033396;28;20166;-87
2021/06/24 08:24:43;;;;;;;46.05;28.80;;;;;;;;;;5065557;28;20039;-87
2021/06/24 08:27:08;;;;;;;40.80;28.40;;;;;;;;;;5049648;28;20024;-87
2021/06/24 08:29:33;;;;;;;46.40;27.38;;;;;;;;;;5067440;28;20030;-87
2021/06/24 08:32:00;;;;;;;44.15;27.85;;;;;;;;;;5045373;28;20642;-87
2021/06/24 08:34:26;;;;;;;38.55;28.55;;;;;;;;;;5039865;28;20069;-87
2021/06/24 08:36:51;;;;;;;38.47;27.13;;;;;;;;;;5068450;28;20020;-87
2021/06/24 08:39:17;;;;;;;47.50;29.67;;;;;;;;;;5050718;28;20012;-87
2021/06/24 08:41:43;;;;;;;39.67;26.20;;;;;;;;;;5049572;28;20361;-87
2021/06/24 08:44:08;;;;;;;46.88;27.80;;;;;;;;;;5050046;28;20278;-87
2021/06/24 08:46:34;;;;;;;38.35;24.05;;;;;;;;;;5052109;28;20024;-86
2021/06/24 08:49:00;;;;;;;40.50;26.60;;;;;;;;;;5070244;28;20022;-87
2021/06/24 08:51:25;;;;;;;36.08;24.23;;;;;;;;;;5053904;28;20563;-86
2021/06/24 08:53:51;;;;;;;44.00;26.52;;;;;;;;;;5051175;28;20056;-86
2021/06/24 08:56:17;;;;;;;41.40;25.58;;;;;;;;;;5048391;28;20021;-86
2021/06/24 08:58:43;;;;;;;39.72;25.38;;;;;;;;;;5070594;28;20016;-86
2021/06/24 09:01:08;;;;;;;36.55;25.70;;;;;;;;;;5069945;28;20086;-85
2021/06/24 09:03:35;;;;;;;45.15;27.30;;;;;;;;;;5075714;28;20024;-85
2021/06/24 09:06:07;;;;;;;42.58;26.70;;;;;;;;;;5039563;28;20424;-85
2021/06/24 09:08:32;;;;;;;40.80;25.80;;;;;;;;;;5052824;28;20021;-86
2021/06/24 09:11:07;;;;;;;41.10;28.45;;;;;;;;;;5035935;28;20020;-86
2021/06/24 09:13:32;;;;;;;41.85;29.20;;;;;;;;;;5040160;28;20045;-86
2021/06/24 09:16:03;;;;;;;39.03;26.60;;;;;;;;;;5068781;28;20516;-86
2021/06/24 09:18:28;;;;;;;39.45;25.02;;;;;;;;;;5078329;28;20035;-86
2021/06/24 09:20:53;;;;;;;34.93;23.73;;;;;;;;;;5076354;28;20567;-86
2021/06/24 09:23:21;;;;;;;37.72;24.17;;;;;;;;;;5054334;28;20267;-86
2021/06/24 09:26:07;;;;;;;40.78;24.27;;;;;;;;;;5052010;28;20021;-86
2021/06/24 09:28:36;;;;;;;31.25;23.77;;;;;;;;;;5032331;28;20028;-85
2021/06/24 09:31:01;;;;;;;27.08;19.70;;;;;;;;;;5050003;28;20384;-85
2021/06/24 09:33:37;;;;;;;33.73;20.47;;;;;;;;;;5035501;28;20029;-85
2021/06/24 09:36:02;;;;;;;27.13;19.58;;;;;;;;;;5059334;28;20262;-85
2021/06/24 09:38:27;;;;;;;31.70;20.45;;;;;;;;;;5066807;28;20024;-85
2021/06/24 09:40:53;;;;;;;31.83;19.30;;;;;;;;;;5051802;28;20024;-85
2021/06/24 09:43:28;;;;;;;34.55;20.85;;;;;;;;;;5049672;28;20274;-85
2021/06/24 09:46:02;;;;;;;30.00;20.17;;;;;;;;;;5041353;28;20036;-85
2021/06/24 09:48:37;;;;;;;30.50;21.83;;;;;;;;;;5062419;28;20016;-85
2021/06/24 09:51:14;;;;;;;33.72;21.40;;;;;;;;;;5050315;28;20048;-85
2021/06/24 09:53:50;;;;;;;30.27;20.77;;;;;;;;;;5065103;28;20020;-85
2021/06/24 09:56:22;;;;;;;31.90;20.67;;;;;;;;;;5060197;28;20016;-85
2021/06/24 09:58:49;;;;;;;32.55;20.27;;;;;;;;;;5045095;28;20048;-85
2021/06/24 10:01:43;;;;;;;26.85;18.23;;;;;;;;;;5054932;28;20043;-85
2021/06/24 10:04:21;;;;;;;27.02;17.40;;;;;;;;;;5021191;28;20036;-85
2021/06/24 10:06:51;;;;;;;25.90;18.70;;;;;;;;;;5063830;28;20159;-86
2021/06/24 10:09:16;;;;;;;28.90;19.75;;;;;;;;;;5058025;28;20024;-86
2021/06/24 10:11:42;;;;;;;26.45;17.77;;;;;;;;;;5051270;28;20484;-86
2021/06/24 10:14:07;;;;;;;24.95;17.02;;;;;;;;;;5051887;28;20116;-86
2021/06/24 10:16:33;;;;;;;26.23;16.98;;;;;;;;;;5060383;28;20021;-86
2021/06/24 10:18:59;;;;;;;21.40;15.95;;;;;;;;;;5040082;28;20399;-86
2021/06/24 10:21:25;;;;;;;23.08;17.05;;;;;;;;;;5050435;28;20048;-86
2021/06/24 10:23:53;;;;;;;21.70;13.02;;;;;;;;;;5050231;28;20027;-86
2021/06/24 10:26:19;;;;;;;16.55;11.88;;;;;;;;;;5055270;28;20021;-86
2021/06/24 10:28:45;;;;;;;17.30;11.80;;;;;;;;;;5051777;28;20029;-86
2021/06/24 10:31:46;;;;;;;17.85;12.00;;;;;;;;;;5045816;28;20024;-87
2021/06/24 10:34:12;;;;;;;15.77;11.15;;;;;;;;;;4969381;28;20042;-87
2021/06/24 10:36:37;;;;;;;21.38;11.50;;;;;;;;;;5032322;28;20040;-87
2021/06/24 10:39:04;;;;;;;17.27;9.52;;;;;;;;;;5041056;28;20024;-86
2021/06/24 10:41:48;;;;;;;18.50;12.65;;;;;;;;;;5041186;28;20032;-86
2021/06/24 10:44:13;;;;;;;21.15;10.50;;;;;;;;;;5042088;28;20120;-86
2021/06/24 10:46:58;;;;;;;16.52;10.05;;;;;;;;;;5042435;28;20644;-86
2021/06/24 10:49:24;;;;;;;14.70;10.35;;;;;;;;;;5042198;28;20031;-87
2021/06/24 10:51:49;;;;;;;15.40;10.32;;;;;;;;;;5052021;28;20276;-86
2021/06/24 10:54:34;;;;;;;14.30;9.27;;;;;;;;;;5045867;28;20021;-86
2021/06/24 10:56:59;;;;;;;14.18;9.95;;;;;;;;;;5038022;28;20017;-86
2021/06/24 10:59:25;;;;;;;15.70;9.38;;;;;;;;;;5036330;28;20562;-86
2021/06/24 11:01:51;;;;;;;13.25;9.63;;;;;;;;;;5035550;28;20062;-86
2021/06/24 11:04:37;;;;;;;16.48;9.73;;;;;;;;;;5052156;28;20029;-86
2021/06/24 11:07:15;;;;;;;15.93;9.63;;;;;;;;;;5066632;28;20025;-87
2021/06/24 11:09:40;;;;;;;13.85;10.13;;;;;;;;;;5044470;28;20032;-86
2021/06/24 11:12:05;;;;;;;12.45;9.75;;;;;;;;;;5057557;28;20029;-86
2021/06/24 11:14:50;;;;;;;15.20;9.10;;;;;;;;;;5049317;28;20523;-86
2021/06/24 11:17:34;;;;;;;17.50;9.10;;;;;;;;;;5065156;28;20364;-86
2021/06/24 11:20:12;;;;;;;17.20;10.52;;;;;;;;;;5041096;28;20021;-86
2021/06/24 11:22:44;;;;;;;15.23;8.75;;;;;;;;;;5065440;22;20505;-72
2021/06/24 11:25:10;;;;;;;15.25;10.18;;;;;;;;;;5029823;28;20377;-72
2021/06/24 11:27:35;;;;;;;12.25;8.85;;;;;;;;;;5030996;28;20109;-72
2021/06/24 11:30:00;;;;;;;15.63;9.40;;;;;;;;;;5031244;28;20117;-72
2021/06/24 11:32:35;;;;;;;12.68;8.07;;;;;;;;;;5031136;28;20268;-73
2021/06/24 11:37:44;;;;;;;16.83;9.38;;;;;;;;;;5061604;22;20565;-71
2021/06/24 11:40:10;;;;;;;15.48;9.40;;;;;;;;;;5050899;28;20028;-74
2021/06/24 11:42:42;;;;;;;12.98;9.10;;;;;;;;;;5050911;28;20123;-71
2021/06/24 11:45:08;;;;;;;11.95;8.38;;;;;;;;;;5032507;28;20070;-72
2021/06/24 11:47:34;;;;;;;11.93;7.63;;;;;;;;;;5050185;28;20493;-72
2021/06/24 12:03:35;;;;;;;8.60;6.20;;;;;;;;;;5051131;28;20029;-73
2021/06/24 12:06:01;;;;;;;9.13;6.47;;;;;;;;;;5050284;28;20094;-72
2021/06/24 12:08:27;;;;;;;12.55;6.57;;;;;;;;;;5050537;28;20033;-72
2021/06/24 12:11:05;;;;;;;8.60;5.68;;;;;;;;;;5052187;28;20027;-71
2021/06/24 12:13:34;;;;;;;11.38;5.90;;;;;;;;;;5050681;28;20070;-74
2021/06/24 12:16:00;;;;;;;11.80;7.32;;;;;;;;;;5050070;28;20033;-74
2021/06/24 12:18:31;;;;;;;10.13;6.38;;;;;;;;;;5050280;28;20037;-71
2021/06/24 12:21:06;;;;;;;7.85;6.47;;;;;;;;;;5050094;28;20025;-72
2021/06/24 12:23:37;;;;;;;13.23;7.30;;;;;;;;;;5050852;28;20103;-72
2021/06/24 12:26:03;;;;;;;11.52;6.93;;;;;;;;;;5043565;28;20048;-71
2021/06/24 12:28:29;;;;;;;10.45;6.63;;;;;;;;;;5044984;28;20064;-72
2021/06/24 12:30:55;;;;;;;11.18;7.30;;;;;;;;;;5047957;28;20013;-71
2021/06/24 12:33:21;;;;;;;11.77;7.63;;;;;;;;;;5036578;28;20482;-72
2021/06/24 12:35:47;;;;;;;20.70;8.32;;;;;;;;;;5043498;28;20029;-71
2021/06/24 12:38:13;;;;;;;14.85;8.65;;;;;;;;;;5049335;28;20028;-74
2021/06/24 12:40:44;;;;;;;12.40;8.68;;;;;;;;;;5050363;28;20481;-72
2021/06/24 12:43:09;;;;;;;;;;;;;;;;;;5050798;28;20112;-73
2021/06/24 12:45:38;;;;;;;13.52;7.53;;;;;;;;;;5049227;28;20058;-71
2021/06/24 12:48:03;;;;;;;13.38;8.32;;;;;;;;;;5047892;28;20029;-73
2021/06/24 12:50:30;;;;;;;16.90;9.35;;;;;;;;;;5045198;28;20036;-72
2021/06/24 12:52:57;;;;;;;14.98;8.35;;;;;;;;;;5050401;28;20064;-71
2021/06/24 12:55:41;;;;;;;14.68;8.13;;;;;;;;;;5049625;28;20293;-71
2021/06/24 12:58:09;;;;;;;10.38;7.55;;;;;;;;;;5050063;28;20016;-72
2021/06/24 13:00:35;;;;;;;12.73;9.07;;;;;;;;;;5049319;28;20029;-72
2021/06/24 13:03:02;;;;;;;17.02;9.13;;;;;;;;;;5049596;28;20114;-73
2021/06/24 13:05:27;;;;;;;15.25;9.35;;;;;;;;;;5049602;28;20017;-72
2021/06/24 13:07:56;;;;;;;13.18;8.88;;;;;;;;;;5061866;28;20107;-72
2021/06/24 13:10:22;;;;;;;16.45;9.70;;;;;;;;;;5049149;28;20040;-76
2021/06/24 13:12:48;;;;;;;16.52;7.97;;;;;;;;;;5031801;28;20551;-73
2021/06/24 13:15:29;;;;;;;13.77;8.90;;;;;;;;;;5032519;28;20065;-70
2021/06/24 13:17:55;;;;;;;25.42;10.80;;;;;;;;;;5045082;28;20124;-73
2021/06/24 13:20:20;;;;;;;19.50;10.35;;;;;;;;;;5049479;28;20027;-72
2021/06/24 13:22:45;;;;;;;15.73;9.93;;;;;;;;;;5049030;28;20029;-73
2021/06/24 13:25:18;;;;;;;17.70;10.73;;;;;;;;;;5049813;28;20325;-73
2021/06/24 13:27:43;;;;;;;15.18;10.02;;;;;;;;;;5049812;28;20040;-75
2021/06/24 13:30:15;;;;;;;17.23;10.13;;;;;;;;;;5049395;28;20107;-72
2021/06/24 13:32:44;;;;;;;19.27;10.30;;;;;;;;;;5049754;28;20021;-71
2021/06/24 13:35:13;;;;;;;24.38;11.30;;;;;;;;;;5040067;28;20022;-72
2021/06/24 13:37:50;;;;;;;19.48;9.82;;;;;;;;;;5019168;28;20048;-72
2021/06/24 13:40:17;;;;;;;22.75;11.27;;;;;;;;;;5049961;28;20502;-72
2021/06/24 13:42:49;;;;;;;17.02;9.35;;;;;;;;;;5052224;28;20028;-72
2021/06/24 13:45:14;;;;;;;20.02;9.65;;;;;;;;;;5053165;28;20083;-73
2021/06/24 13:47:40;;;;;;;21.83;10.70;;;;;;;;;;5036281;28;20025;-71
2021/06/24 13:50:05;;;;;;;22.47;11.93;;;;;;;;;;5053920;28;20027;-72
2021/06/24 13:52:31;;;;;;;19.92;9.80;;;;;;;;;;5033602;28;20256;-72
2021/06/24 13:54:57;;;;;;;18.60;9.75;;;;;;;;;;5047506;28;20022;-72
2021/06/24 13:57:22;;;;;;;23.35;11.10;;;;;;;;;;5048788;28;20024;-73
2021/06/24 13:59:47;;;;;;;22.83;9.57;;;;;;;;;;5053538;28;20037;-72
2021/06/24 14:02:13;;;;;;;19.45;9.50;;;;;;;;;;5053061;28;20025;-71
2021/06/24 14:04:38;;;;;;;15.13;8.47;;;;;;;;;;5054362;28;20034;-72
2021/06/24 14:07:03;;;;;;;18.23;9.27;;;;;;;;;;5053086;28;20264;-71
2021/06/24 14:09:28;;;;;;;20.23;8.68;;;;;;;;;;5045818;28;20087;-73
2021/06/24 14:11:53;;;;;;;17.10;7.73;;;;;;;;;;5045671;28;20024;-71
2021/06/24 14:14:19;;;;;;;13.73;7.85;;;;;;;;;;5054152;28;20465;-71
2021/06/24 14:16:44;;;;;;;17.00;7.88;;;;;;;;;;5053532;28;20037;-73
2021/06/24 14:19:10;;;;;;;19.92;7.90;;;;;;;;;;5053451;28;20441;-72
2021/06/24 14:21:36;;;;;;;15.65;7.47;;;;;;;;;;5052564;28;20028;-72
2021/06/24 14:24:02;;;;;;;21.70;8.15;;;;;;;;;;5051790;28;20078;-71
2021/06/24 14:26:28;;;;;;;17.90;7.93;;;;;;;;;;5052674;28;20477;-71
2021/06/24 14:28:54;;;;;;;14.63;7.43;;;;;;;;;;5050580;28;20032;-72
2021/06/24 14:31:19;;;;;;;20.40;8.20;;;;;;;;;;5052991;28;20017;-72
2021/06/24 14:33:45;;;;;;;12.32;7.13;;;;;;;;;;5054239;28;20021;-73
2021/06/24 14:36:10;;;;;;;11.38;6.47;;;;;;;;;;5052211;28;20389;-73